Time;durP1;ratioP1;P1;durP2;ratioP2;P2;SDS_P1;SDS_P2;PMS_P1;PMS_P2;Temp;Humidity;BMP_temperature;BMP_pressure;BME280_temperature;BME280_humidity;BME280_pressure;Samples;Min_cycle;Max_cycle;Signal;HPM_P1;HPM_P2
2022/11/11 00:01:05;;;;;;;12.13;5.93;;;11.00;99.90;;;;;;4948792;28;20455;-85
2022/11/11 00:03:32;;;;;;;10.50;6.23;;;11.00;99.90;;;;;;4973034;28;20499;-84
2022/11/11 00:06:11;;;;;;;10.30;7.00;;;11.00;99.90;;;;;;4974566;28;20450;-85
2022/11/11 00:08:45;;;;;;;9.67;5.00;;;10.90;99.90;;;;;;4976459;28;20470;-84
2022/11/11 00:11:15;;;;;;;10.67;6.90;;;10.90;99.90;;;;;;4956435;28;20490;-84
2022/11/11 00:13:45;;;;;;;10.70;6.97;;;10.90;99.90;;;;;;4986815;28;20447;-82
2022/11/11 00:16:18;;;;;;;9.90;6.20;;;10.80;99.90;;;;;;4978140;28;20483;-83
2022/11/11 00:27:16;;;;;;;9.47;6.83;;;10.90;99.90;;;;;;4965075;28;20471;-83
2022/11/11 00:29:48;;;;;;;9.80;6.60;;;10.90;99.90;;;;;;4958860;28;20448;-82
2022/11/11 00:32:23;;;;;;;8.97;5.30;;;10.90;99.90;;;;;;4959185;28;20553;-83
2022/11/11 00:37:48;;;;;;;11.37;5.90;;;10.80;99.90;;;;;;4978102;28;20455;-84
2022/11/11 00:40:17;;;;;;;7.10;6.00;;;10.90;99.90;;;;;;4957565;28;20762;-82
2022/11/11 00:42:50;;;;;;;7.50;5.83;;;11.00;99.90;;;;;;4962117;28;20487;-81
2022/11/11 00:45:23;;;;;;;6.43;4.40;;;11.10;99.90;;;;;;4969823;28;20547;-83
2022/11/11 00:51:01;;;;;;;7.07;5.70;;;10.90;99.90;;;;;;4981344;28;20496;-80
2022/11/11 00:53:34;;;;;;;8.23;5.03;;;10.90;99.90;;;;;;4971027;28;20498;-82
2022/11/11 00:56:01;;;;;;;7.17;5.67;;;10.80;99.90;;;;;;4963054;28;20447;-82
2022/11/11 00:58:32;;;;;;;8.80;5.40;;;10.80;99.90;;;;;;4987709;28;20456;-84
2022/11/11 01:00:59;;;;;;;10.33;6.07;;;10.80;99.90;;;;;;4958073;28;20470;-84
2022/11/11 01:03:54;;;;;;;9.50;5.77;;;10.90;99.90;;;;;;4973483;28;20479;-84
2022/11/11 01:06:22;;;;;;;9.53;5.60;;;10.80;99.90;;;;;;4949524;28;20552;-83
2022/11/11 01:09:05;;;;;;;9.50;5.87;;;10.70;99.90;;;;;;4974219;28;20462;-85
2022/11/11 01:11:35;;;;;;;5.40;4.90;;;10.80;99.90;;;;;;4973001;28;20541;-82
2022/11/11 01:14:09;;;;;;;6.23;5.17;;;10.70;99.90;;;;;;4945130;28;20459;-82
2022/11/11 01:16:39;;;;;;;8.60;5.43;;;10.80;99.90;;;;;;4958298;28;20474;-84
2022/11/11 01:19:06;;;;;;;7.17;5.40;;;10.90;99.90;;;;;;4962679;28;20459;-82
2022/11/11 01:21:51;;;;;;;11.27;5.63;;;11.00;99.90;;;;;;4971252;28;20471;-82
2022/11/11 01:24:23;;;;;;;6.40;4.67;;;11.00;99.90;;;;;;4974119;28;20469;-83
2022/11/11 01:26:52;;;;;;;12.30;5.40;;;10.90;99.90;;;;;;4948030;29;20464;-83
2022/11/11 01:29:21;;;;;;;6.83;5.40;;;10.80;99.90;;;;;;4950236;28;20470;-83
2022/11/11 01:31:50;;;;;;;9.00;5.37;;;10.80;99.90;;;;;;4966676;28;20486;-84
2022/11/11 01:34:17;;;;;;;8.53;4.93;;;10.70;99.90;;;;;;4973485;28;20463;-83
2022/11/11 01:36:48;;;;;;;9.10;5.97;;;10.70;99.90;;;;;;4963484;28;20484;-83
2022/11/11 01:39:15;;;;;;;7.50;6.10;;;10.70;99.90;;;;;;4956346;28;20549;-84
2022/11/11 01:41:47;;;;;;;7.10;5.57;;;10.70;99.90;;;;;;4963185;28;20589;-84
2022/11/11 01:44:15;;;;;;;10.07;5.40;;;10.60;99.90;;;;;;4971209;28;20467;-83
2022/11/11 01:46:56;;;;;;;7.30;5.60;;;10.60;99.90;;;;;;4980191;28;20502;-84
2022/11/11 01:49:45;;;;;;;13.63;5.90;;;10.70;99.90;;;;;;4962085;28;20467;-83
2022/11/11 01:52:25;;;;;;;7.57;6.30;;;10.70;99.90;;;;;;4961366;28;20580;-83
2022/11/11 01:55:06;;;;;;;9.53;5.47;;;10.70;99.90;;;;;;4963031;28;20451;-82
2022/11/11 01:57:56;;;;;;;6.33;5.67;;;10.70;99.90;;;;;;4961947;28;20463;-84
2022/11/11 02:00:24;;;;;;;7.00;5.90;;;10.70;99.90;;;;;;4955159;28;20458;-84
2022/11/11 02:02:53;;;;;;;5.90;5.30;;;10.70;99.90;;;;;;4979204;28;20585;-84
2022/11/11 02:05:46;;;;;;;17.63;6.00;;;10.70;99.90;;;;;;4970421;28;20455;-81
2022/11/11 02:08:46;;;;;;;8.23;5.07;;;10.60;99.90;;;;;;4972520;28;20526;-84
2022/11/11 02:14:34;;;;;;;7.00;5.20;;;10.60;99.90;;;;;;4960090;28;20527;-83
2022/11/11 02:17:00;;;;;;;10.90;5.80;;;10.60;99.90;;;;;;4975130;28;21008;-83
2022/11/11 02:20:13;;;;;;;7.53;5.20;;;10.60;99.90;;;;;;4947353;28;20542;-84
2022/11/11 02:22:56;;;;;;;5.77;4.97;;;10.50;99.90;;;;;;4935162;29;20473;-83
2022/11/11 02:25:31;;;;;;;8.57;5.23;;;10.50;99.90;;;;;;4913128;29;21007;-82
2022/11/11 02:28:12;;;;;;;7.77;4.87;;;10.60;99.90;;;;;;4942454;28;20452;-83
2022/11/11 02:30:44;;;;;;;5.33;4.80;;;10.60;99.90;;;;;;4972209;28;20446;-83
2022/11/11 02:33:11;;;;;;;8.47;4.90;;;10.50;99.90;;;;;;4962025;28;20473;-82
2022/11/11 02:35:55;;;;;;;8.43;4.90;;;10.50;99.90;;;;;;4978865;28;20800;-82
2022/11/11 02:38:28;;;;;;;11.00;6.53;;;10.50;99.90;;;;;;4963023;28;20515;-84
2022/11/11 02:43:46;;;;;;;9.33;5.10;;;10.40;99.90;;;;;;4975996;28;21152;-82
2022/11/11 02:46:23;;;;;;;7.13;5.70;;;10.40;99.90;;;;;;4956125;28;20462;-83
2022/11/11 02:48:52;;;;;;;6.67;5.10;;;10.50;99.90;;;;;;4980328;28;21010;-83
2022/11/11 02:51:21;;;;;;;7.50;5.10;;;10.40;99.90;;;;;;4969559;28;20475;-83
2022/11/11 02:53:50;;;;;;;7.60;5.33;;;10.40;99.90;;;;;;4958858;29;20459;-83
2022/11/11 02:57:05;;;;;;;11.57;5.87;;;10.40;99.90;;;;;;4960877;28;20497;-83
2022/11/11 02:59:04;;;;;;;7.40;5.47;;;10.30;99.90;;;;;;4975443;28;20826;-81
2022/11/11 03:01:35;;;;;;;9.23;5.23;;;10.30;99.90;;;;;;4961218;28;20698;-81
2022/11/11 03:04:07;;;;;;;10.80;6.20;;;10.30;99.90;;;;;;4961135;28;20517;-84
2022/11/11 03:06:39;;;;;;;7.60;5.57;;;10.20;99.90;;;;;;4950625;28;20469;-82
2022/11/11 03:09:13;;;;;;;9.63;5.00;;;10.10;99.90;;;;;;4955476;28;20455;-82
2022/11/11 03:11:44;;;;;;;8.03;4.73;;;10.10;99.90;;;;;;4959313;28;20502;-82
2022/11/11 03:14:15;;;;;;;6.80;5.10;;;10.20;99.90;;;;;;4954632;29;20527;-82
2022/11/11 03:19:49;;;;;;;9.10;6.40;;;10.40;99.90;;;;;;4976456;28;20464;-83
2022/11/11 03:22:18;;;;;;;9.30;5.80;;;10.40;99.90;;;;;;4958541;28;21022;-82
2022/11/11 03:27:59;;;;;;;11.80;5.47;;;10.20;99.90;;;;;;4974759;28;20494;-84
2022/11/11 03:30:31;;;;;;;9.10;5.60;;;10.30;99.90;;;;;;4977544;28;20487;-84
2022/11/11 03:33:00;;;;;;;7.40;6.10;;;10.20;99.90;;;;;;4971934;28;20482;-84
2022/11/11 03:35:30;;;;;;;12.23;5.90;;;10.30;99.90;;;;;;4970007;28;20445;-83
2022/11/11 03:41:04;;;;;;;8.33;6.17;;;10.30;99.90;;;;;;4957174;28;20498;-83
2022/11/11 03:43:34;;;;;;;9.67;6.47;;;10.20;99.90;;;;;;4940269;29;20522;-83
2022/11/11 03:46:23;;;;;;;7.40;4.93;;;10.10;99.90;;;;;;4939811;29;20539;-83
2022/11/11 03:49:05;;;;;;;9.03;5.27;;;10.00;99.90;;;;;;4948332;28;20530;-83
2022/11/11 03:51:33;;;;;;;7.93;5.30;;;10.10;99.90;;;;;;4962529;28;20519;-84
2022/11/11 03:54:08;;;;;;;9.87;6.20;;;10.20;99.90;;;;;;4968568;28;20461;-82
2022/11/11 03:56:46;;;;;;;11.30;6.30;;;10.20;99.90;;;;;;4967330;28;20462;-83
2022/11/11 03:59:17;;;;;;;7.40;6.00;;;10.30;99.90;;;;;;4958196;28;20451;-84
2022/11/11 04:10:24;;;;;;;8.30;5.70;;;10.10;99.90;;;;;;4990510;28;20435;-83
2022/11/11 04:16:10;;;;;;;6.23;5.23;;;10.00;99.90;;;;;;4994656;28;20451;-84
2022/11/11 04:21:43;;;;;;;8.93;6.37;;;10.10;99.90;;;;;;4963779;28;20457;-84
2022/11/11 04:27:10;;;;;;;10.00;5.67;;;10.10;99.90;;;;;;4959024;28;20492;-83
2022/11/11 04:29:49;;;;;;;7.27;5.60;;;10.00;99.90;;;;;;4976954;28;20462;-84
2022/11/11 04:32:41;;;;;;;11.70;6.10;;;10.00;99.90;;;;;;4960914;28;20487;-82
2022/11/11 04:35:14;;;;;;;7.97;5.67;;;10.10;99.90;;;;;;4960921;28;20439;-83
2022/11/11 04:41:02;;;;;;;8.37;5.70;;;10.10;99.90;;;;;;4960887;28;20457;-83
2022/11/11 04:41:02;;;;;;;6.10;5.37;;;10.10;99.90;;;;;;4977335;28;20784;-83
2022/11/11 04:46:23;;;;;;;8.00;5.70;;;9.80;99.90;;;;;;4983143;28;20434;-82
2022/11/11 04:48:57;;;;;;;6.90;5.07;;;9.80;99.90;;;;;;4983776;28;20526;-83
2022/11/11 04:54:25;;;;;;;9.13;5.80;;;10.10;99.90;;;;;;4997557;28;20449;-84
2022/11/11 04:56:57;;;;;;;6.17;5.13;;;10.10;99.90;;;;;;4974800;28;20533;-82
2022/11/11 04:59:26;;;;;;;6.63;5.70;;;10.10;99.90;;;;;;4948149;28;20925;-83
2022/11/11 05:04:43;;;;;;;6.67;5.97;;;10.00;99.90;;;;;;4977130;28;20452;-83
2022/11/11 05:10:14;;;;;;;10.50;5.70;;;9.90;99.90;;;;;;4969114;28;20521;-83
2022/11/11 05:12:46;;;;;;;6.67;5.80;;;9.70;99.90;;;;;;4968170;28;20489;-83
2022/11/11 05:26:30;;;;;;;8.73;6.40;;;9.90;99.90;;;;;;4981850;28;20453;-83
2022/11/11 05:29:08;;;;;;;11.00;6.77;;;9.80;99.90;;;;;;4963666;28;20453;-84
2022/11/11 05:32:03;;;;;;;8.67;5.97;;;9.60;99.90;;;;;;4961815;28;20492;-84
2022/11/11 05:34:35;;;;;;;7.23;5.13;;;9.60;99.90;;;;;;4962851;28;20451;-83
2022/11/11 05:37:02;;;;;;;9.93;5.57;;;9.70;99.90;;;;;;4972248;28;20883;-84
2022/11/11 05:39:33;;;;;;;7.93;5.50;;;10.00;99.90;;;;;;4962923;28;20582;-83
2022/11/11 05:42:11;;;;;;;6.83;5.03;;;10.00;99.90;;;;;;4962782;28;21016;-83
2022/11/11 05:44:44;;;;;;;6.30;5.13;;;10.00;99.90;;;;;;4957396;28;20460;-82
2022/11/11 05:47:26;;;;;;;9.10;6.47;;;9.90;99.90;;;;;;4966814;28;20834;-83
2022/11/11 05:49:58;;;;;;;6.73;5.20;;;9.80;99.90;;;;;;4957714;28;20469;-84
2022/11/11 05:52:30;;;;;;;8.70;6.63;;;9.80;99.90;;;;;;4963383;28;20551;-84
2022/11/11 05:55:01;;;;;;;8.53;6.00;;;9.80;99.90;;;;;;4977002;28;20461;-83
2022/11/11 05:57:36;;;;;;;9.73;6.33;;;9.80;99.90;;;;;;4964169;28;20467;-82
2022/11/11 06:00:04;;;;;;;6.70;5.33;;;9.80;99.90;;;;;;4961848;28;20476;-84
2022/11/11 06:02:42;;;;;;;8.47;5.97;;;9.80;99.90;;;;;;4973478;28;20499;-84
2022/11/11 06:05:16;;;;;;;9.63;6.93;;;9.80;99.90;;;;;;4980180;28;20935;-84
2022/11/11 06:07:57;;;;;;;7.87;6.43;;;9.60;99.90;;;;;;4969384;28;20454;-83
2022/11/11 06:10:37;;;;;;;9.87;5.20;;;9.60;99.90;;;;;;4967502;28;20919;-84
2022/11/11 06:13:15;;;;;;;9.00;6.43;;;9.60;99.90;;;;;;4963733;28;20512;-84
2022/11/11 06:15:44;;;;;;;9.77;7.00;;;9.80;99.90;;;;;;4948832;28;20538;-84
2022/11/11 06:18:20;;;;;;;8.50;6.20;;;9.80;99.90;;;;;;4980361;28;20456;-83
2022/11/11 06:20:59;;;;;;;6.57;5.17;;;9.80;99.90;;;;;;4970919;28;20439;-83
2022/11/11 06:23:29;;;;;;;9.30;6.20;;;9.90;99.90;;;;;;4964235;28;20483;-84
2022/11/11 06:26:13;;;;;;;9.40;6.33;;;9.80;99.90;;;;;;4981080;28;20957;-84
2022/11/11 06:28:52;;;;;;;10.03;5.90;;;9.80;99.90;;;;;;4965297;28;20456;-84
2022/11/11 06:31:29;;;;;;;10.90;7.03;;;9.80;99.90;;;;;;4953531;28;20467;-83
2022/11/11 06:33:56;;;;;;;14.90;6.03;;;9.80;99.90;;;;;;4962164;28;20465;-83
2022/11/11 06:36:23;;;;;;;11.70;5.53;;;9.60;99.90;;;;;;4961470;28;20451;-82
2022/11/11 06:38:53;;;;;;;8.70;5.80;;;9.60;99.90;;;;;;4962351;28;20556;-82
2022/11/11 06:41:24;;;;;;;10.60;6.17;;;9.60;99.90;;;;;;4961352;28;20466;-84
2022/11/11 06:43:59;;;;;;;8.27;6.83;;;9.70;99.90;;;;;;4974664;28;20970;-82
2022/11/11 06:46:30;;;;;;;11.30;6.90;;;9.70;99.90;;;;;;4970234;28;20477;-84
2022/11/11 06:49:03;;;;;;;8.43;6.57;;;9.80;99.90;;;;;;4985361;28;20447;-83
2022/11/11 06:51:47;;;;;;;11.17;6.00;;;9.70;99.90;;;;;;4968064;28;20480;-84
2022/11/11 06:54:22;;;;;;;12.07;7.67;;;9.70;99.90;;;;;;4981427;28;20459;-84
2022/11/11 06:56:53;;;;;;;12.93;6.33;;;9.70;99.90;;;;;;4964384;28;20459;-84
2022/11/11 06:59:28;;;;;;;9.77;5.70;;;9.70;99.90;;;;;;4967751;28;20450;-85
2022/11/11 07:02:12;;;;;;;11.60;6.10;;;9.60;99.90;;;;;;4979894;28;20494;-83
2022/11/11 07:04:51;;;;;;;14.17;6.47;;;9.50;99.90;;;;;;4982409;28;20498;-83
2022/11/11 07:07:28;;;;;;;10.97;7.10;;;9.60;99.90;;;;;;4993753;28;20443;-83
2022/11/11 07:10:18;;;;;;;15.33;7.10;;;9.70;99.90;;;;;;4989628;28;20540;-81
2022/11/11 07:12:55;;;;;;;8.87;6.63;;;9.60;99.90;;;;;;4992909;28;20491;-84
2022/11/11 07:15:23;;;;;;;12.67;7.77;;;9.60;99.90;;;;;;4964905;28;21031;-84
2022/11/11 07:17:58;;;;;;;13.23;6.23;;;9.70;99.90;;;;;;4966817;28;20471;-84
2022/11/11 07:20:38;;;;;;;13.30;8.00;;;9.60;99.90;;;;;;4974873;28;20463;-85
2022/11/11 07:23:14;;;;;;;11.07;5.97;;;9.70;99.90;;;;;;4980793;28;20475;-84
2022/11/11 07:25:52;;;;;;;17.97;7.10;;;9.70;99.90;;;;;;4981487;28;20465;-83
2022/11/11 07:28:25;;;;;;;9.30;6.67;;;9.60;99.90;;;;;;4964635;28;20490;-82
2022/11/11 07:30:56;;;;;;;14.07;6.50;;;9.70;99.90;;;;;;4970871;28;20465;-83
2022/11/11 07:33:51;;;;;;;15.57;6.63;;;9.80;99.90;;;;;;4963242;28;20544;-83
2022/11/11 07:36:49;;;;;;;10.30;5.93;;;9.80;99.90;;;;;;4964817;28;21027;-83
2022/11/11 07:39:40;;;;;;;9.27;6.37;;;9.80;99.90;;;;;;4961001;28;20469;-83
2022/11/11 07:42:36;;;;;;;9.20;5.83;;;9.80;99.90;;;;;;4967522;28;20478;-84
2022/11/11 07:45:31;;;;;;;13.20;6.57;;;9.80;99.90;;;;;;4968255;28;20443;-83
2022/11/11 07:48:25;;;;;;;8.70;5.67;;;10.00;99.90;;;;;;4965248;28;20474;-85
2022/11/11 07:51:01;;;;;;;11.20;6.67;;;10.00;99.90;;;;;;4974461;28;20530;-84
2022/11/11 07:53:48;;;;;;;9.63;8.10;;;10.10;99.90;;;;;;4959298;28;20490;-83
2022/11/11 07:56:33;;;;;;;14.03;6.67;;;10.00;99.90;;;;;;4964179;28;20447;-84
2022/11/11 07:59:23;;;;;;;16.57;7.47;;;10.10;99.90;;;;;;4981227;28;20459;-84
2022/11/11 08:04:50;;;;;;;11.33;6.77;;;10.30;99.90;;;;;;5006177;23;20484;-84
2022/11/11 08:08:01;;;;;;;10.53;7.53;;;10.30;99.90;;;;;;4978675;28;20534;-83
2022/11/11 08:10:37;;;;;;;6.93;5.70;;;10.20;99.90;;;;;;4956902;28;20463;-83
2022/11/11 08:16:05;;;;;;;11.80;6.20;;;10.50;99.90;;;;;;4960175;29;20460;-83
2022/11/11 08:18:44;;;;;;;16.17;8.87;;;10.30;99.90;;;;;;4945310;28;20452;-83
2022/11/11 08:21:26;;;;;;;14.07;6.77;;;10.30;99.90;;;;;;4977458;28;20459;-83
2022/11/11 08:24:17;;;;;;;11.77;6.70;;;10.40;99.90;;;;;;4967205;28;20427;-83
2022/11/11 08:27:37;;;;;;;13.57;7.83;;;10.40;99.90;;;;;;4960191;28;20504;-82
2022/11/11 08:30:38;;;;;;;14.30;7.70;;;10.50;99.90;;;;;;4949171;28;20476;-85
2022/11/11 08:33:21;;;;;;;8.83;6.60;;;10.50;99.90;;;;;;4982833;28;20530;-85
2022/11/11 08:36:14;;;;;;;11.90;6.70;;;10.50;99.90;;;;;;4967734;28;20850;-83
2022/11/11 08:39:00;;;;;;;11.83;6.67;;;10.40;99.90;;;;;;4972036;28;20467;-84
2022/11/11 08:41:49;;;;;;;11.00;6.27;;;10.60;99.90;;;;;;5030955;23;20455;-83
2022/11/11 08:44:55;;;;;;;9.00;6.47;;;10.50;99.90;;;;;;4962139;28;20459;-83
2022/11/11 08:47:51;;;;;;;9.60;5.70;;;10.60;99.90;;;;;;4982753;28;20451;-85
2022/11/11 08:51:19;;;;;;;11.60;5.90;;;10.70;99.90;;;;;;4965683;28;20439;-84
2022/11/11 08:54:18;;;;;;;10.40;6.30;;;10.70;99.90;;;;;;4971467;28;20534;-84
2022/11/11 09:04:55;;;;;;;;;;;;;;;;;;;;;
2022/11/11 09:07:38;;;;;;;9.17;5.53;;;10.90;99.90;;;;;;4941058;29;20768;-83
2022/11/11 09:10:37;;;;;;;10.43;6.10;;;11.10;99.90;;;;;;4980865;28;20455;-83
2022/11/11 09:13:31;;;;;;;8.70;6.30;;;11.10;99.90;;;;;;4994792;28;20544;-84
2022/11/11 09:16:22;;;;;;;;;;;;;;;;;;;;;
2022/11/11 09:19:29;;;;;;;8.63;6.00;;;11.20;99.90;;;;;;4992245;28;20441;-82
2022/11/11 09:22:14;;;;;;;7.00;5.40;;;11.40;99.90;;;;;;5002406;28;20477;-84
2022/11/11 09:25:13;;;;;;;8.80;5.80;;;11.50;99.90;;;;;;4983512;28;20516;-84
2022/11/11 09:32:19;;;;;;;11.73;5.60;;;11.70;99.90;;;;;;4877838;29;20519;-82
2022/11/11 09:35:12;;;;;;;8.63;5.23;;;11.90;99.90;;;;;;4882580;29;20446;-82
2022/11/11 09:38:06;;;;;;;7.90;4.83;;;12.50;99.90;;;;;;4909274;29;20458;-84
2022/11/11 09:41:09;;;;;;;5.83;4.60;;;13.00;99.90;;;;;;4973733;28;20493;-82
2022/11/11 09:48:04;;;;;;;6.63;5.23;;;13.00;99.90;;;;;;4972325;28;20442;-82
2022/11/11 09:51:01;;;;;;;6.23;4.93;;;13.00;99.90;;;;;;4974715;28;20883;-84
2022/11/11 09:54:19;;;;;;;9.70;5.23;;;13.00;99.90;;;;;;4979386;28;20457;-85
2022/11/11 09:57:28;;;;;;;7.30;5.70;;;12.80;99.90;;;;;;4973959;28;20448;-84
2022/11/11 10:03:57;;;;;;;7.10;5.23;;;12.70;99.90;;;;;;4980162;28;20471;-84
2022/11/11 10:07:03;;;;;;;8.03;5.17;;;12.60;99.90;;;;;;4981715;28;20481;-83
2022/11/11 10:10:29;;;;;;;;;;;;;;;;;;;;;
2022/11/11 10:17:27;;;;;;;6.77;4.60;;;12.30;99.90;;;;;;4933196;29;20907;-83
2022/11/11 10:23:54;;;;;;;7.40;5.50;;;12.50;99.90;;;;;;4998704;28;20470;-84
2022/11/11 10:30:53;;;;;;;6.40;4.17;;;12.70;99.90;;;;;;4930519;29;20437;-83
2022/11/11 10:37:54;;;;;;;;;;;;;;;;;;;;;
2022/11/11 10:41:26;;;;;;;7.87;5.83;;;12.70;99.90;;;;;;4913660;29;20459;-84
2022/11/11 10:44:37;;;;;;;5.30;4.13;;;12.80;99.90;;;;;;4904672;29;20973;-83
2022/11/11 10:47:38;;;;;;;7.13;4.67;;;12.70;99.90;;;;;;4913946;29;20600;-84
2022/11/11 10:53:49;;;;;;;7.53;4.43;;;13.00;99.90;;;;;;4904479;29;20509;-84
2022/11/11 10:56:57;;;;;;;5.93;4.23;;;13.00;99.90;;;;;;4887145;29;20589;-85
2022/11/11 11:14:50;;;;;;;;;;;;;;;;;;;;;
2022/11/11 11:18:09;;;;;;;7.90;3.30;;;13.60;99.90;;;;;;4972769;28;20471;-83
2022/11/11 11:24:48;;;;;;;;;;;;;;;;;;;;;
2022/11/11 11:28:13;;;;;;;5.43;3.70;;;13.40;99.90;;;;;;4937243;29;20558;-84
2022/11/11 11:34:58;;;;;;;6.63;3.57;;;14.00;99.90;;;;;;4958726;29;21024;-84
2022/11/11 11:38:29;;;;;;;3.77;2.93;;;14.10;99.60;;;;;;4944320;29;20535;-83
2022/11/11 11:42:06;;;;;;;;;;;;;;;;;;;;;
2022/11/11 11:45:57;;;;;;;4.37;3.17;;;14.20;99.30;;;;;;4960111;29;20443;-84
2022/11/11 11:55:51;;;;;;;5.57;3.10;;;14.50;98.70;;;;;;4979431;28;20509;-83
2022/11/11 11:59:28;;;;;;;4.50;2.77;;;14.40;98.00;;;;;;4977586;28;20475;-83
2022/11/11 12:33:04;;;;;;;4.20;2.70;;;15.00;96.40;;;;;;4674018;30;20530;-85
2022/11/11 12:36:30;;;;;;;3.70;2.30;;;14.80;96.60;;;;;;4650814;30;20571;-84
2022/11/11 12:39:35;;;;;;;3.60;2.10;;;14.60;97.20;;;;;;4665675;30;21227;-84
2022/11/11 12:42:57;;;;;;;8.03;2.43;;;14.60;97.20;;;;;;4754455;23;20525;-84
2022/11/11 12:46:26;;;;;;;3.23;2.13;;;14.90;96.40;;;;;;4985743;28;20449;-83
2022/11/11 12:53:36;;;;;;;3.17;2.47;;;14.80;95.20;;;;;;4977653;23;20582;-84
2022/11/11 13:00:48;;;;;;;2.57;1.90;;;14.50;96.00;;;;;;4879151;29;20439;-83
2022/11/11 13:06:35;;;;;;;3.33;1.60;;;14.80;95.60;;;;;;5042854;23;20488;-83
2022/11/11 13:13:45;;;;;;;2.17;1.60;;;15.10;94.60;;;;;;4973996;29;20475;-84
2022/11/11 13:21:15;;;;;;;2.50;1.60;;;15.50;93.80;;;;;;4917529;29;20514;-84
2022/11/11 13:24:22;;;;;;;2.00;1.63;;;15.40;94.10;;;;;;4864289;29;20460;-84
2022/11/11 13:43:59;;;;;;;2.87;2.37;;;15.50;94.00;;;;;;5292812;23;20553;-84
2022/11/11 13:50:55;;;;;;;3.13;1.60;;;15.80;93.20;;;;;;4913831;29;20451;-84
2022/11/11 13:54:06;;;;;;;4.60;2.10;;;15.80;93.40;;;;;;5169656;23;20483;-85
2022/11/11 14:01:38;;;;;;;2.23;1.50;;;15.80;93.70;;;;;;4844296;29;20554;-84
2022/11/11 14:09:07;;;;;;;1.60;1.30;;;15.90;92.90;;;;;;4829875;29;20419;-82
2022/11/11 14:16:02;;;;;;;3.57;1.60;;;16.00;93.20;;;;;;4901841;29;20539;-83
2022/11/11 14:28:14;;;;;;;;;;;;;;;;;;;;;
2022/11/11 14:31:19;;;;;;;1.50;1.40;;;16.00;93.50;;;;;;4781565;30;20449;-84
2022/11/11 14:34:46;;;;;;;;;;;;;;;;;;;;;
2022/11/11 14:38:42;;;;;;;;;;;;;;;;;;;;;
2022/11/11 15:39:43;;;;;;;;;;;;;;;;;;;;;
2022/11/11 15:42:52;;;;;;;;;;;;;;;;;;;;;
2022/11/11 16:12:24;;;;;;;;;;;;;;;;;;;;;
2022/11/11 16:22:29;;;;;;;2.80;2.10;;;14.40;97.60;;;;;;4989300;28;20426;-82
2022/11/11 16:25:53;;;;;;;2.07;1.87;;;14.70;96.50;;;;;;4928267;29;20464;-84
2022/11/11 16:29:26;;;;;;;;;;;;;;;;;;;;;
2022/11/11 16:33:01;;;;;;;4.23;2.27;;;14.60;96.30;;;;;;4936985;23;20561;-84
2022/11/11 16:36:18;;;;;;;3.60;2.50;;;14.40;96.60;;;;;;4909017;29;20465;-85
2022/11/11 16:40:18;;;;;;;3.53;2.00;;;14.20;97.30;;;;;;4920740;29;20469;-84
2022/11/11 16:43:30;;;;;;;4.40;2.30;;;14.20;97.60;;;;;;4879189;29;20514;-84
2022/11/11 16:46:50;;;;;;;4.87;3.07;;;14.30;97.20;;;;;;4883570;29;20517;-82
2022/11/11 16:50:00;;;;;;;4.07;2.73;;;14.20;97.20;;;;;;4910799;29;20449;-85
2022/11/11 16:52:50;;;;;;;2.83;2.50;;;14.30;97.30;;;;;;4988793;23;20497;-85
2022/11/11 16:56:01;;;;;;;2.90;2.50;;;14.10;97.40;;;;;;5002787;28;20515;-84
2022/11/11 16:58:42;;;;;;;4.00;2.53;;;13.90;97.90;;;;;;5017156;28;20449;-85
2022/11/11 17:01:44;;;;;;;5.87;2.60;;;14.00;98.20;;;;;;4997851;28;20460;-85
2022/11/11 17:04:55;;;;;;;4.03;2.43;;;14.10;98.00;;;;;;4985292;28;20552;-85
2022/11/11 17:08:31;;;;;;;;;;;;;;;;;;;;;
2022/11/11 17:11:37;;;;;;;4.37;2.70;;;13.80;98.30;;;;;;4979186;28;20456;-83
2022/11/11 17:14:24;;;;;;;2.80;2.50;;;13.90;98.30;;;;;;5009035;28;20492;-84
2022/11/11 17:17:24;;;;;;;2.30;2.20;;;13.90;98.30;;;;;;4988815;28;20542;-84
2022/11/11 17:20:22;;;;;;;5.70;3.40;;;13.80;98.20;;;;;;5003817;28;20515;-84
2022/11/11 17:22:57;;;;;;;4.00;2.60;;;13.90;98.20;;;;;;4987188;28;20486;-84
2022/11/11 17:25:53;;;;;;;3.20;2.60;;;13.90;98.30;;;;;;4989918;28;20474;-84
2022/11/11 17:28:38;;;;;;;4.20;3.57;;;13.80;98.70;;;;;;4990278;28;20449;-85
2022/11/11 17:31:15;;;;;;;9.53;2.90;;;13.60;98.80;;;;;;4970409;28;20518;-85
2022/11/11 17:33:52;;;;;;;2.87;2.67;;;13.60;98.90;;;;;;4991453;28;20902;-85
2022/11/11 17:36:38;;;;;;;3.00;2.47;;;13.80;98.80;;;;;;4990718;28;20857;-84
2022/11/11 17:39:09;;;;;;;3.70;2.50;;;13.70;98.70;;;;;;4993073;28;20456;-85
2022/11/11 17:41:52;;;;;;;2.77;2.57;;;13.70;98.60;;;;;;4985776;28;20474;-84
2022/11/11 17:44:36;;;;;;;4.33;2.90;;;13.70;98.80;;;;;;4979508;28;20542;-84
2022/11/11 17:47:13;;;;;;;5.20;2.83;;;13.50;98.90;;;;;;4973478;28;20450;-84
2022/11/11 17:49:50;;;;;;;5.03;3.37;;;13.50;99.10;;;;;;4988319;28;20469;-83
2022/11/11 17:52:33;;;;;;;4.57;3.40;;;13.50;99.20;;;;;;4970462;28;20533;-85
2022/11/11 17:55:08;;;;;;;3.70;2.90;;;13.50;99.30;;;;;;4994316;28;20505;-84
2022/11/11 18:01:15;;;;;;;4.83;3.83;;;13.50;98.90;;;;;;5015339;28;20430;-83
2022/11/11 18:03:56;;;;;;;3.97;2.93;;;13.40;98.90;;;;;;4985598;28;20702;-85
2022/11/11 18:06:34;;;;;;;3.67;3.20;;;13.40;99.10;;;;;;5003807;28;20543;-85
2022/11/11 18:09:31;;;;;;;3.30;3.00;;;13.40;99.20;;;;;;4984889;28;20494;-85
2022/11/11 18:12:07;;;;;;;5.53;3.60;;;13.40;99.10;;;;;;5023357;23;20495;-84
2022/11/11 18:14:51;;;;;;;3.40;3.00;;;13.40;98.90;;;;;;4940308;29;20531;-83
2022/11/11 18:17:41;;;;;;;6.93;3.47;;;13.30;99.10;;;;;;4977208;28;20515;-85
2022/11/11 18:20:32;;;;;;;6.33;3.87;;;13.30;99.10;;;;;;4961970;29;20498;-85
2022/11/11 18:23:16;;;;;;;3.50;2.73;;;13.20;99.30;;;;;;4958754;29;20477;-86
2022/11/11 18:25:54;;;;;;;2.87;2.67;;;13.10;99.50;;;;;;4961105;29;20489;-85
2022/11/11 18:28:31;;;;;;;2.97;2.60;;;13.10;99.30;;;;;;4964013;28;21025;-84
2022/11/11 18:31:19;;;;;;;4.33;2.80;;;13.00;99.20;;;;;;4978742;28;20473;-84
2022/11/11 18:33:52;;;;;;;5.87;3.90;;;12.90;99.40;;;;;;4961744;28;20483;-84
2022/11/11 18:36:31;;;;;;;6.90;3.10;;;12.90;99.50;;;;;;4961384;29;20480;-83
2022/11/11 18:39:45;;;;;;;3.70;3.23;;;12.90;99.50;;;;;;4956591;29;20467;-85
2022/11/11 18:42:31;;;;;;;4.90;3.20;;;12.80;99.60;;;;;;4958568;28;20452;-85
2022/11/11 18:45:36;;;;;;;5.23;3.30;;;12.80;99.50;;;;;;4962204;29;20520;-85
2022/11/11 18:48:10;;;;;;;5.87;3.33;;;12.80;99.30;;;;;;4955205;29;20467;-84
2022/11/11 18:50:57;;;;;;;4.03;3.63;;;12.90;99.30;;;;;;4961773;29;20512;-83
2022/11/11 18:53:40;;;;;;;4.63;3.90;;;12.80;99.30;;;;;;4960256;29;20484;-85
2022/11/11 18:56:40;;;;;;;5.43;3.90;;;12.80;99.30;;;;;;4956509;29;20507;-84
2022/11/11 18:59:12;;;;;;;3.83;3.03;;;12.90;99.20;;;;;;4963342;29;20480;-83
2022/11/11 19:01:52;;;;;;;5.50;4.50;;;12.80;99.10;;;;;;4960894;29;20480;-84
2022/11/11 19:04:39;;;;;;;3.63;3.33;;;12.80;99.00;;;;;;4963031;29;20451;-83
2022/11/11 19:07:25;;;;;;;3.50;3.20;;;12.80;99.10;;;;;;4968706;29;20440;-83
2022/11/11 19:10:04;;;;;;;5.63;4.50;;;12.60;99.40;;;;;;4950334;29;20459;-84
2022/11/11 19:12:57;;;;;;;4.80;3.40;;;12.70;99.70;;;;;;4995654;23;20494;-85
2022/11/11 19:15:40;;;;;;;5.70;4.40;;;12.80;99.40;;;;;;5000399;28;21017;-84
2022/11/11 19:18:30;;;;;;;7.50;4.17;;;12.60;99.50;;;;;;4992352;28;20465;-84
2022/11/11 19:23:57;;;;;;;4.73;4.17;;;12.60;99.50;;;;;;4992893;23;20526;-85
2022/11/11 19:26:46;;;;;;;;;;;;;;;;;;;;;
2022/11/11 19:29:44;;;;;;;4.63;3.70;;;12.70;99.60;;;;;;4993015;28;20434;-85
2022/11/11 19:32:42;;;;;;;6.90;4.50;;;12.70;99.30;;;;;;4983671;28;20498;-85
2022/11/11 19:35:32;;;;;;;4.90;4.07;;;12.70;99.30;;;;;;4960419;28;20485;-85
2022/11/11 19:38:04;;;;;;;5.63;5.00;;;12.70;99.30;;;;;;4963020;29;20471;-84
2022/11/11 19:40:41;;;;;;;5.20;3.90;;;12.60;99.00;;;;;;4964234;28;20488;-83
2022/11/11 19:43:57;;;;;;;4.50;4.10;;;12.50;99.30;;;;;;4967540;28;21019;-84
2022/11/11 19:46:38;;;;;;;4.87;4.30;;;12.50;99.50;;;;;;4951945;29;20903;-83
2022/11/11 19:49:27;;;;;;;5.00;4.27;;;12.40;99.60;;;;;;4954637;29;20523;-84
2022/11/11 19:52:07;;;;;;;5.20;4.67;;;12.40;99.90;;;;;;4925483;29;20477;-82
2022/11/11 19:54:46;;;;;;;6.27;4.50;;;12.40;99.80;;;;;;4939324;28;20511;-84
2022/11/11 19:57:19;;;;;;;4.13;3.63;;;12.40;99.80;;;;;;4964636;28;20451;-82
2022/11/11 19:59:59;;;;;;;5.73;4.50;;;12.50;99.90;;;;;;4945792;29;20456;-83
2022/11/11 20:02:35;;;;;;;5.43;4.43;;;12.50;99.90;;;;;;4949294;28;20508;-84
2022/11/11 20:05:22;;;;;;;5.00;4.50;;;12.30;99.90;;;;;;4929418;28;20465;-85
2022/11/11 20:08:13;;;;;;;8.53;4.87;;;12.40;99.90;;;;;;4964472;28;20469;-85
2022/11/11 20:10:45;;;;;;;6.07;4.50;;;12.20;99.90;;;;;;4961441;28;20525;-84
2022/11/11 20:13:30;;;;;;;5.40;4.70;;;12.20;99.90;;;;;;4946074;29;20572;-84
2022/11/11 20:16:13;;;;;;;6.17;4.90;;;12.30;99.90;;;;;;4956310;28;20487;-84
2022/11/11 20:19:02;;;;;;;7.40;4.70;;;12.20;99.90;;;;;;4952013;29;20972;-83
2022/11/11 20:21:34;;;;;;;5.80;5.30;;;12.20;99.90;;;;;;4968756;28;20941;-84